sensor_id;sensor_type;location;lat;lon;timestamp;P1;durP1;ratioP1;P2;durP2;ratioP2
49147;SDS011;41980;45.550;12.070;2023-05-07T06:24:23;6.28;;;5.32;;
49147;SDS011;41980;45.550;12.070;2023-05-07T06:30:26;3.63;;;2.88;;
49147;SDS011;41980;45.550;12.070;2023-05-07T06:36:29;3.78;;;3.20;;
49147;SDS011;41980;45.550;12.070;2023-05-07T06:42:34;3.28;;;2.72;;
49147;SDS011;41980;45.550;12.070;2023-05-07T06:48:55;6.40;;;5.53;;
49147;SDS011;41980;45.550;12.070;2023-05-07T06:54:58;4.97;;;2.85;;
49147;SDS011;41980;45.550;12.070;2023-05-07T07:01:02;4.57;;;3.10;;
49147;SDS011;41980;45.550;12.070;2023-05-07T07:07:04;2.58;;;2.03;;
49147;SDS011;41980;45.550;12.070;2023-05-07T07:13:06;5.13;;;3.40;;
49147;SDS011;41980;45.550;12.070;2023-05-07T07:19:08;3.50;;;2.60;;
49147;SDS011;41980;45.550;12.070;2023-05-07T07:25:11;2.60;;;2.05;;
49147;SDS011;41980;45.550;12.070;2023-05-07T07:31:13;3.75;;;2.42;;
49147;SDS011;41980;45.550;12.070;2023-05-07T07:37:17;3.17;;;2.20;;
49147;SDS011;41980;45.550;12.070;2023-05-07T07:43:19;3.20;;;2.47;;
49147;SDS011;41980;45.550;12.070;2023-05-07T07:49:22;3.00;;;2.00;;
49147;SDS011;41980;45.550;12.070;2023-05-07T07:55:24;2.75;;;2.05;;
49147;SDS011;41980;45.550;12.070;2023-05-07T08:01:29;3.10;;;1.90;;
49147;SDS011;41980;45.550;12.070;2023-05-07T08:07:33;2.58;;;1.77;;
49147;SDS011;41980;45.550;12.070;2023-05-07T08:13:35;2.35;;;1.60;;
49147;SDS011;41980;45.550;12.070;2023-05-07T08:19:39;3.33;;;2.33;;
49147;SDS011;41980;45.550;12.070;2023-05-07T08:25:45;2.70;;;2.00;;
49147;SDS011;41980;45.550;12.070;2023-05-07T08:31:48;4.22;;;2.33;;
49147;SDS011;41980;45.550;12.070;2023-05-07T08:37:50;4.07;;;2.38;;
49147;SDS011;41980;45.550;12.070;2023-05-07T08:43:53;3.10;;;2.25;;
49147;SDS011;41980;45.550;12.070;2023-05-07T08:50:00;4.55;;;3.15;;
49147;SDS011;41980;45.550;12.070;2023-05-07T08:56:03;3.85;;;2.00;;
49147;SDS011;41980;45.550;12.070;2023-05-07T09:02:07;2.15;;;1.50;;
49147;SDS011;41980;45.550;12.070;2023-05-07T09:08:14;2.92;;;1.73;;
49147;SDS011;41980;45.550;12.070;2023-05-07T09:14:18;2.53;;;1.60;;
49147;SDS011;41980;45.550;12.070;2023-05-07T09:20:23;3.17;;;2.00;;
49147;SDS011;41980;45.550;12.070;2023-05-07T09:26:26;2.20;;;1.70;;
49147;SDS011;41980;45.550;12.070;2023-05-07T09:32:32;2.65;;;1.60;;
49147;SDS011;41980;45.550;12.070;2023-05-07T09:38:40;3.10;;;2.00;;
49147;SDS011;41980;45.550;12.070;2023-05-07T09:44:43;3.03;;;2.13;;
49147;SDS011;41980;45.550;12.070;2023-05-07T09:50:51;2.88;;;2.17;;
49147;SDS011;41980;45.550;12.070;2023-05-07T09:57:02;2.85;;;1.90;;
49147;SDS011;41980;45.550;12.070;2023-05-07T10:03:07;1.90;;;1.45;;
49147;SDS011;41980;45.550;12.070;2023-05-07T10:09:21;3.83;;;1.95;;
49147;SDS011;41980;45.550;12.070;2023-05-07T10:15:24;3.45;;;1.50;;
49147;SDS011;41980;45.550;12.070;2023-05-07T10:21:30;2.50;;;1.50;;
49147;SDS011;41980;45.550;12.070;2023-05-07T10:27:37;2.92;;;1.73;;
49147;SDS011;41980;45.550;12.070;2023-05-07T10:33:40;3.70;;;1.60;;
49147;SDS011;41980;45.550;12.070;2023-05-07T10:39:45;2.55;;;1.85;;
49147;SDS011;41980;45.550;12.070;2023-05-07T11:04:38;3.80;;;2.40;;
49147;SDS011;41980;45.550;12.070;2023-05-07T11:10:55;4.68;;;2.95;;
49147;SDS011;41980;45.550;12.070;2023-05-07T11:17:06;3.67;;;2.83;;
49147;SDS011;41980;45.550;12.070;2023-05-07T11:29:29;3.80;;;3.15;;
49147;SDS011;41980;45.550;12.070;2023-05-07T11:35:39;3.30;;;2.40;;
49147;SDS011;41980;45.550;12.070;2023-05-07T11:41:46;3.15;;;2.35;;
49147;SDS011;41980;45.550;12.070;2023-05-07T11:47:48;2.80;;;1.90;;
49147;SDS011;41980;45.550;12.070;2023-05-07T11:53:50;3.72;;;2.85;;
49147;SDS011;41980;45.550;12.070;2023-05-07T11:59:53;3.72;;;2.70;;
49147;SDS011;41980;45.550;12.070;2023-05-07T12:05:56;3.63;;;2.63;;
49147;SDS011;41980;45.550;12.070;2023-05-07T12:12:02;4.15;;;3.10;;
49147;SDS011;41980;45.550;12.070;2023-05-07T12:18:05;2.78;;;2.00;;
49147;SDS011;41980;45.550;12.070;2023-05-07T12:24:08;4.45;;;3.45;;
49147;SDS011;41980;45.550;12.070;2023-05-07T12:30:10;3.45;;;2.58;;
49147;SDS011;41980;45.550;12.070;2023-05-07T12:36:14;4.70;;;4.18;;
49147;SDS011;41980;45.550;12.070;2023-05-07T12:42:19;4.82;;;3.53;;
49147;SDS011;41980;45.550;12.070;2023-05-07T12:48:27;4.13;;;3.45;;
49147;SDS011;41980;45.550;12.070;2023-05-07T12:54:31;4.85;;;4.13;;
49147;SDS011;41980;45.550;12.070;2023-05-07T13:00:36;3.75;;;3.17;;
49147;SDS011;41980;45.550;12.070;2023-05-07T13:06:39;4.35;;;3.83;;
49147;SDS011;41980;45.550;12.070;2023-05-07T13:12:41;3.90;;;2.92;;
49147;SDS011;41980;45.550;12.070;2023-05-07T13:18:43;4.43;;;2.90;;
49147;SDS011;41980;45.550;12.070;2023-05-07T13:24:47;3.85;;;3.22;;
49147;SDS011;41980;45.550;12.070;2023-05-07T13:30:49;3.65;;;2.88;;
49147;SDS011;41980;45.550;12.070;2023-05-07T13:36:53;4.35;;;2.92;;
49147;SDS011;41980;45.550;12.070;2023-05-07T13:42:57;4.88;;;4.15;;
49147;SDS011;41980;45.550;12.070;2023-05-07T13:49:02;3.92;;;3.22;;
49147;SDS011;41980;45.550;12.070;2023-05-07T13:55:04;3.78;;;2.80;;
49147;SDS011;41980;45.550;12.070;2023-05-07T14:01:06;2.90;;;2.30;;
49147;SDS011;41980;45.550;12.070;2023-05-07T14:07:09;3.88;;;2.60;;
49147;SDS011;41980;45.550;12.070;2023-05-07T14:13:11;2.67;;;1.75;;
49147;SDS011;41980;45.550;12.070;2023-05-07T14:19:13;2.83;;;1.80;;
49147;SDS011;41980;45.550;12.070;2023-05-07T14:25:15;2.60;;;1.90;;
49147;SDS011;41980;45.550;12.070;2023-05-07T14:31:24;2.42;;;1.80;;
49147;SDS011;41980;45.550;12.070;2023-05-07T14:37:27;2.33;;;1.70;;
49147;SDS011;41980;45.550;12.070;2023-05-07T14:43:29;3.55;;;1.85;;
49147;SDS011;41980;45.550;12.070;2023-05-07T14:49:31;4.82;;;2.55;;
49147;SDS011;41980;45.550;12.070;2023-05-07T14:55:34;3.08;;;1.75;;
49147;SDS011;41980;45.550;12.070;2023-05-07T15:01:36;2.50;;;1.60;;
49147;SDS011;41980;45.550;12.070;2023-05-07T15:07:44;3.42;;;1.75;;
49147;SDS011;41980;45.550;12.070;2023-05-07T15:13:45;2.88;;;1.80;;
49147;SDS011;41980;45.550;12.070;2023-05-07T15:19:47;2.13;;;1.50;;
49147;SDS011;41980;45.550;12.070;2023-05-07T15:25:49;2.58;;;1.60;;
49147;SDS011;41980;45.550;12.070;2023-05-07T15:31:53;1.92;;;1.40;;
49147;SDS011;41980;45.550;12.070;2023-05-07T15:37:55;3.25;;;1.63;;
49147;SDS011;41980;45.550;12.070;2023-05-07T15:43:57;2.72;;;1.92;;
49147;SDS011;41980;45.550;12.070;2023-05-07T15:49:59;2.88;;;1.98;;
49147;SDS011;41980;45.550;12.070;2023-05-07T15:56:04;2.53;;;1.65;;
49147;SDS011;41980;45.550;12.070;2023-05-07T16:02:06;2.55;;;1.70;;
49147;SDS011;41980;45.550;12.070;2023-05-07T16:08:08;2.47;;;1.38;;
49147;SDS011;41980;45.550;12.070;2023-05-07T16:14:12;3.17;;;1.63;;
49147;SDS011;41980;45.550;12.070;2023-05-07T16:20:14;2.35;;;1.40;;
49147;SDS011;41980;45.550;12.070;2023-05-07T16:26:20;2.58;;;1.38;;
49147;SDS011;41980;45.550;12.070;2023-05-07T16:32:22;3.25;;;1.60;;
49147;SDS011;41980;45.550;12.070;2023-05-07T16:38:24;3.78;;;1.50;;
49147;SDS011;41980;45.550;12.070;2023-05-07T16:44:27;2.10;;;1.30;;
49147;SDS011;41980;45.550;12.070;2023-05-07T16:50:29;3.00;;;1.30;;
49147;SDS011;41980;45.550;12.070;2023-05-07T16:56:31;2.45;;;1.20;;
49147;SDS011;41980;45.550;12.070;2023-05-07T17:02:33;3.00;;;1.20;;
49147;SDS011;41980;45.550;12.070;2023-05-07T17:08:35;2.63;;;1.00;;
49147;SDS011;41980;45.550;12.070;2023-05-07T17:14:38;1.83;;;1.05;;
49147;SDS011;41980;45.550;12.070;2023-05-07T17:20:40;3.38;;;1.20;;
49147;SDS011;41980;45.550;12.070;2023-05-07T17:26:42;1.70;;;1.10;;
49147;SDS011;41980;45.550;12.070;2023-05-07T17:32:44;1.73;;;1.15;;
49147;SDS011;41980;45.550;12.070;2023-05-07T17:38:47;2.28;;;1.25;;
49147;SDS011;41980;45.550;12.070;2023-05-07T17:44:49;2.63;;;1.20;;
49147;SDS011;41980;45.550;12.070;2023-05-07T17:50:51;2.10;;;1.23;;
49147;SDS011;41980;45.550;12.070;2023-05-07T17:56:53;2.72;;;1.70;;
49147;SDS011;41980;45.550;12.070;2023-05-07T18:02:55;2.75;;;1.48;;
49147;SDS011;41980;45.550;12.070;2023-05-07T18:09:00;1.90;;;1.25;;
49147;SDS011;41980;45.550;12.070;2023-05-07T18:15:05;2.30;;;1.45;;
49147;SDS011;41980;45.550;12.070;2023-05-07T18:21:09;2.05;;;1.10;;
49147;SDS011;41980;45.550;12.070;2023-05-07T18:27:16;2.10;;;1.10;;
49147;SDS011;41980;45.550;12.070;2023-05-07T18:33:18;2.40;;;1.08;;
49147;SDS011;41980;45.550;12.070;2023-05-07T18:39:21;3.28;;;1.60;;
49147;SDS011;41980;45.550;12.070;2023-05-07T18:45:23;1.90;;;1.20;;
49147;SDS011;41980;45.550;12.070;2023-05-07T18:51:25;2.42;;;1.10;;
49147;SDS011;41980;45.550;12.070;2023-05-07T18:57:27;2.90;;;1.40;;
49147;SDS011;41980;45.550;12.070;2023-05-07T19:03:30;2.60;;;1.70;;
49147;SDS011;41980;45.550;12.070;2023-05-07T19:09:33;3.55;;;2.15;;
49147;SDS011;41980;45.550;12.070;2023-05-07T19:15:35;2.85;;;1.90;;
49147;SDS011;41980;45.550;12.070;2023-05-07T19:21:37;3.30;;;2.30;;
49147;SDS011;41980;45.550;12.070;2023-05-07T19:27:39;4.25;;;3.15;;
49147;SDS011;41980;45.550;12.070;2023-05-07T19:33:41;3.53;;;2.45;;
49147;SDS011;41980;45.550;12.070;2023-05-07T19:39:43;3.05;;;2.10;;
49147;SDS011;41980;45.550;12.070;2023-05-07T19:45:45;6.07;;;2.45;;
49147;SDS011;41980;45.550;12.070;2023-05-07T19:51:48;3.30;;;2.60;;
49147;SDS011;41980;45.550;12.070;2023-05-07T19:57:50;3.80;;;2.75;;
49147;SDS011;41980;45.550;12.070;2023-05-07T20:03:52;5.15;;;3.72;;
49147;SDS011;41980;45.550;12.070;2023-05-07T20:09:54;4.55;;;3.15;;
49147;SDS011;41980;45.550;12.070;2023-05-07T20:15:57;4.65;;;3.50;;
49147;SDS011;41980;45.550;12.070;2023-05-07T20:22:00;5.50;;;4.20;;
49147;SDS011;41980;45.550;12.070;2023-05-07T20:28:02;3.88;;;2.80;;
49147;SDS011;41980;45.550;12.070;2023-05-07T20:34:04;5.45;;;4.65;;
49147;SDS011;41980;45.550;12.070;2023-05-07T20:40:07;4.75;;;3.80;;
49147;SDS011;41980;45.550;12.070;2023-05-07T20:46:10;5.07;;;3.60;;
49147;SDS011;41980;45.550;12.070;2023-05-07T20:52:12;4.30;;;3.50;;
49147;SDS011;41980;45.550;12.070;2023-05-07T20:58:14;4.40;;;3.80;;
49147;SDS011;41980;45.550;12.070;2023-05-07T21:04:16;3.70;;;2.80;;
49147;SDS011;41980;45.550;12.070;2023-05-07T21:10:18;3.55;;;2.60;;
49147;SDS011;41980;45.550;12.070;2023-05-07T21:16:20;3.25;;;2.65;;
49147;SDS011;41980;45.550;12.070;2023-05-07T21:22:23;4.85;;;3.05;;
49147;SDS011;41980;45.550;12.070;2023-05-07T21:28:25;3.55;;;2.70;;
49147;SDS011;41980;45.550;12.070;2023-05-07T21:34:27;3.28;;;2.33;;
49147;SDS011;41980;45.550;12.070;2023-05-07T21:40:29;4.65;;;3.05;;
49147;SDS011;41980;45.550;12.070;2023-05-07T21:46:31;3.20;;;2.50;;
49147;SDS011;41980;45.550;12.070;2023-05-07T21:52:33;3.03;;;2.08;;
49147;SDS011;41980;45.550;12.070;2023-05-07T21:58:35;3.92;;;3.10;;
49147;SDS011;41980;45.550;12.070;2023-05-07T22:04:37;4.75;;;3.97;;
49147;SDS011;41980;45.550;12.070;2023-05-07T22:10:39;5.70;;;4.38;;
49147;SDS011;41980;45.550;12.070;2023-05-07T22:16:41;8.85;;;6.05;;
49147;SDS011;41980;45.550;12.070;2023-05-07T22:22:45;8.82;;;7.35;;
49147;SDS011;41980;45.550;12.070;2023-05-07T22:28:49;7.13;;;5.40;;
49147;SDS011;41980;45.550;12.070;2023-05-07T22:34:51;10.20;;;7.60;;
49147;SDS011;41980;45.550;12.070;2023-05-07T22:40:53;7.10;;;5.30;;
49147;SDS011;41980;45.550;12.070;2023-05-07T22:46:55;8.88;;;7.38;;
49147;SDS011;41980;45.550;12.070;2023-05-07T22:52:57;9.80;;;8.48;;
49147;SDS011;41980;45.550;12.070;2023-05-07T22:58:59;9.23;;;7.35;;
49147;SDS011;41980;45.550;12.070;2023-05-07T23:05:01;17.27;;;14.63;;
49147;SDS011;41980;45.550;12.070;2023-05-07T23:11:03;12.65;;;11.32;;
49147;SDS011;41980;45.550;12.070;2023-05-07T23:17:05;10.85;;;8.43;;
49147;SDS011;41980;45.550;12.070;2023-05-07T23:23:07;10.50;;;9.40;;
49147;SDS011;41980;45.550;12.070;2023-05-07T23:29:09;7.95;;;6.40;;
49147;SDS011;41980;45.550;12.070;2023-05-07T23:35:11;7.57;;;6.22;;
49147;SDS011;41980;45.550;12.070;2023-05-07T23:41:13;6.93;;;5.35;;
49147;SDS011;41980;45.550;12.070;2023-05-07T23:47:15;10.57;;;9.32;;
49147;SDS011;41980;45.550;12.070;2023-05-07T23:53:17;9.63;;;8.50;;
49147;SDS011;41980;45.550;12.070;2023-05-07T23:59:19;15.93;;;12.88;;
